Time;durP1;ratioP1;P1;durP2;ratioP2;P2;SDS_P1;SDS_P2;PMS_P1;PMS_P2;Temp;Humidity;BMP_temperature;BMP_pressure;BME280_temperature;BME280_humidity;BME280_pressure;Samples;Min_cycle;Max_cycle;Signal;HPM_P1;HPM_P2
2023/03/12 00:00:15;;;;;;;8.70;5.27;;;;;;;;;;5074071;28;20215;-81
2023/03/12 00:02:42;;;;;;;9.43;6.93;;;;;;;;;;5060995;28;20247;-82
2023/03/12 00:05:11;;;;;;;9.33;5.50;;;;;;;;;;5054032;28;20206;-81
2023/03/12 00:07:38;;;;;;;6.50;5.67;;;;;;;;;;5053384;28;20238;-82
2023/03/12 00:10:06;;;;;;;6.60;5.60;;;;;;;;;;5053587;28;20635;-82
2023/03/12 00:12:33;;;;;;;7.23;5.80;;;;;;;;;;5052884;28;20240;-81
2023/03/12 00:15:01;;;;;;;10.13;6.43;;;;;;;;;;5053406;28;20215;-82
2023/03/12 00:17:29;;;;;;;7.87;5.70;;;;;;;;;;5052497;28;20243;-82
2023/03/12 00:19:56;;;;;;;10.23;5.70;;;;;;;;;;5053401;28;20218;-82
2023/03/12 00:22:25;;;;;;;11.70;6.03;;;;;;;;;;5052469;28;20239;-82
2023/03/12 00:24:52;;;;;;;6.67;5.50;;;;;;;;;;5052478;28;20210;-82
2023/03/12 00:27:19;;;;;;;5.37;4.87;;;;;;;;;;5052480;28;20230;-82
2023/03/12 00:29:46;;;;;;;11.37;5.47;;;;;;;;;;5052143;28;20219;-82
2023/03/12 00:32:13;;;;;;;6.23;5.60;;;;;;;;;;5052196;28;20231;-82
2023/03/12 00:34:40;;;;;;;6.53;5.47;;;;;;;;;;5060547;28;20522;-82
2023/03/12 00:37:07;;;;;;;7.30;5.40;;;;;;;;;;5060913;28;20219;-82
2023/03/12 00:39:36;;;;;;;7.53;5.53;;;;;;;;;;5064385;28;20273;-82
2023/03/12 00:42:03;;;;;;;6.03;5.43;;;;;;;;;;5069562;28;20284;-82
2023/03/12 00:44:30;;;;;;;7.90;5.43;;;;;;;;;;5063780;28;20234;-82
2023/03/12 00:46:57;;;;;;;7.83;5.33;;;;;;;;;;5072328;28;20293;-81
2023/03/12 00:49:24;;;;;;;6.63;5.33;;;;;;;;;;5073215;28;20206;-81
2023/03/12 00:51:52;;;;;;;6.10;4.83;;;;;;;;;;5067758;28;20229;-82
2023/03/12 00:54:20;;;;;;;7.27;5.10;;;;;;;;;;5051927;28;20239;-82
2023/03/12 00:56:48;;;;;;;5.93;5.27;;;;;;;;;;5052654;28;20577;-82
2023/03/12 00:59:15;;;;;;;7.97;5.37;;;;;;;;;;5052045;28;20238;-82
2023/03/12 01:01:43;;;;;;;15.67;6.40;;;;;;;;;;5064734;28;20677;-82
2023/03/12 01:04:10;;;;;;;9.70;6.40;;;;;;;;;;5071806;28;20615;-82
2023/03/12 01:06:37;;;;;;;13.40;5.80;;;;;;;;;;5072238;28;20221;-81
2023/03/12 01:09:05;;;;;;;8.17;5.83;;;;;;;;;;5071608;28;20239;-84
2023/03/12 01:11:32;;;;;;;7.87;5.63;;;;;;;;;;5068137;28;20203;-81
2023/03/12 01:14:01;;;;;;;7.80;5.77;;;;;;;;;;5058829;28;20238;-82
2023/03/12 01:16:29;;;;;;;6.30;5.60;;;;;;;;;;5072092;28;20255;-82
2023/03/12 01:18:56;;;;;;;7.30;5.50;;;;;;;;;;5071867;28;20237;-81
2023/03/12 01:21:24;;;;;;;6.87;6.17;;;;;;;;;;5072309;28;20219;-82
2023/03/12 01:23:51;;;;;;;6.20;5.60;;;;;;;;;;5071426;28;20246;-81
2023/03/12 01:26:18;;;;;;;6.63;6.03;;;;;;;;;;5072382;28;20199;-82
2023/03/12 01:28:45;;;;;;;8.20;5.87;;;;;;;;;;5063956;28;20241;-81
2023/03/12 01:31:15;;;;;;;6.27;5.70;;;;;;;;;;5052622;28;20211;-82
2023/03/12 01:33:42;;;;;;;6.20;5.60;;;;;;;;;;5052518;28;20317;-81
2023/03/12 01:36:15;;;;;;;9.83;5.70;;;;;;;;;;5052978;28;20300;-81
2023/03/12 01:38:42;;;;;;;9.70;5.70;;;;;;;;;;5052116;28;20246;-82
2023/03/12 01:41:10;;;;;;;11.63;6.17;;;;;;;;;;5052534;28;20207;-82
2023/03/12 01:43:38;;;;;;;8.77;5.70;;;;;;;;;;5051979;28;20241;-82
2023/03/12 01:46:22;;;;;;;6.97;5.47;;;;;;;;;;5052780;28;20279;-82
2023/03/12 01:48:54;;;;;;;8.10;5.07;;;;;;;;;;5052034;28;20267;-82
2023/03/12 01:51:21;;;;;;;6.07;5.23;;;;;;;;;;5052344;28;20191;-82
2023/03/12 01:53:50;;;;;;;7.63;5.53;;;;;;;;;;5051903;28;20270;-82
2023/03/12 01:56:19;;;;;;;6.33;5.50;;;;;;;;;;5063841;28;20212;-81
2023/03/12 01:58:48;;;;;;;14.47;5.80;;;;;;;;;;5063075;28;20232;-81
2023/03/12 02:01:16;;;;;;;6.60;5.90;;;;;;;;;;5063864;28;20214;-82
2023/03/12 02:03:45;;;;;;;6.23;5.40;;;;;;;;;;5070073;28;20231;-81
2023/03/12 02:06:15;;;;;;;6.40;5.80;;;;;;;;;;5071621;28;20207;-82
2023/03/12 02:08:44;;;;;;;5.87;5.20;;;;;;;;;;5071621;28;20237;-82
2023/03/12 02:11:11;;;;;;;6.43;5.40;;;;;;;;;;5065739;28;20217;-82
2023/03/12 02:13:38;;;;;;;7.43;5.43;;;;;;;;;;5051413;28;20250;-83
2023/03/12 02:16:06;;;;;;;5.70;5.20;;;;;;;;;;5052552;28;20295;-82
2023/03/12 02:18:34;;;;;;;9.17;4.90;;;;;;;;;;5052449;28;20373;-82
2023/03/12 02:21:05;;;;;;;6.33;5.73;;;;;;;;;;5054344;28;20206;-82
2023/03/12 02:23:36;;;;;;;7.23;5.40;;;;;;;;;;5053080;28;20257;-82
2023/03/12 02:26:05;;;;;;;7.70;5.60;;;;;;;;;;5052168;28;20191;-81
2023/03/12 02:28:34;;;;;;;8.47;5.30;;;;;;;;;;5051251;28;20246;-81
2023/03/12 02:31:06;;;;;;;6.37;5.73;;;;;;;;;;5052037;28;20208;-82
2023/03/12 02:33:33;;;;;;;7.33;5.90;;;;;;;;;;5051484;28;20585;-82
2023/03/12 02:36:00;;;;;;;9.30;5.57;;;;;;;;;;5051801;28;20215;-82
2023/03/12 02:38:32;;;;;;;6.40;5.70;;;;;;;;;;5051566;28;20741;-82
2023/03/12 02:41:01;;;;;;;7.57;5.73;;;;;;;;;;5051632;28;20257;-82
2023/03/12 02:43:29;;;;;;;7.80;5.50;;;;;;;;;;5051029;28;20234;-81
2023/03/12 02:45:56;;;;;;;12.17;6.17;;;;;;;;;;5051779;28;20212;-82
2023/03/12 02:48:24;;;;;;;8.07;5.33;;;;;;;;;;5051753;28;20227;-82
2023/03/12 02:50:51;;;;;;;5.93;5.40;;;;;;;;;;5051785;28;20207;-81
2023/03/12 02:53:18;;;;;;;6.30;5.63;;;;;;;;;;5057010;28;20311;-82
2023/03/12 02:55:45;;;;;;;8.20;5.63;;;;;;;;;;5055294;28;20216;-83
2023/03/12 02:58:12;;;;;;;9.97;5.57;;;;;;;;;;5056923;28;20231;-82
2023/03/12 03:00:40;;;;;;;5.67;5.07;;;;;;;;;;5075547;28;20210;-82
2023/03/12 03:03:07;;;;;;;7.20;6.00;;;;;;;;;;5074483;28;20236;-83
2023/03/12 03:05:36;;;;;;;7.07;5.77;;;;;;;;;;5069379;28;20205;-82
2023/03/12 03:08:03;;;;;;;5.57;5.07;;;;;;;;;;5054573;28;20264;-82
2023/03/12 03:10:30;;;;;;;6.00;5.40;;;;;;;;;;5055058;28;20211;-83
2023/03/12 03:12:57;;;;;;;6.60;5.80;;;;;;;;;;5060008;28;20261;-83
2023/03/12 03:15:25;;;;;;;7.10;5.33;;;;;;;;;;5074583;28;20222;-82
2023/03/12 03:17:53;;;;;;;7.20;5.77;;;;;;;;;;5074543;28;20605;-82
2023/03/12 03:20:21;;;;;;;6.37;5.23;;;;;;;;;;5075020;28;20203;-83
2023/03/12 03:22:48;;;;;;;6.00;5.40;;;;;;;;;;5066674;28;20638;-82
2023/03/12 03:25:21;;;;;;;7.33;5.30;;;;;;;;;;5068522;28;20205;-82
2023/03/12 03:27:48;;;;;;;6.77;5.10;;;;;;;;;;5074225;28;20225;-83
2023/03/12 03:30:16;;;;;;;10.67;5.40;;;;;;;;;;5075604;28;20207;-83
2023/03/12 03:32:43;;;;;;;8.17;5.47;;;;;;;;;;5073244;28;20249;-82
2023/03/12 03:35:11;;;;;;;6.87;5.40;;;;;;;;;;5075198;28;20552;-82
2023/03/12 03:37:38;;;;;;;6.30;5.53;;;;;;;;;;5064156;28;20243;-82
2023/03/12 03:40:10;;;;;;;5.67;5.07;;;;;;;;;;5068075;28;20203;-82
2023/03/12 03:42:37;;;;;;;6.27;5.30;;;;;;;;;;5060423;28;20419;-82
2023/03/12 03:45:05;;;;;;;6.93;5.23;;;;;;;;;;5055032;28;20225;-81
2023/03/12 03:47:32;;;;;;;6.20;5.60;;;;;;;;;;5054416;28;20243;-82
2023/03/12 03:49:59;;;;;;;7.60;5.60;;;;;;;;;;5054671;28;20227;-82
2023/03/12 03:52:27;;;;;;;8.97;5.30;;;;;;;;;;5057488;28;20234;-82
2023/03/12 03:54:55;;;;;;;6.67;5.40;;;;;;;;;;5055388;28;20202;-82
2023/03/12 03:57:23;;;;;;;6.30;5.43;;;;;;;;;;5054121;28;20240;-83
2023/03/12 03:59:50;;;;;;;13.27;6.23;;;;;;;;;;5054828;28;20202;-83
2023/03/12 04:02:17;;;;;;;6.63;5.67;;;;;;;;;;5060244;28;20269;-83
2023/03/12 04:04:44;;;;;;;7.80;5.60;;;;;;;;;;5074270;28;20215;-82
2023/03/12 04:07:11;;;;;;;6.90;5.50;;;;;;;;;;5073755;28;20290;-83
2023/03/12 04:09:40;;;;;;;10.07;5.97;;;;;;;;;;5074687;28;20206;-83
2023/03/12 04:12:07;;;;;;;6.07;5.47;;;;;;;;;;5073633;28;20196;-83
2023/03/12 04:14:34;;;;;;;11.13;5.80;;;;;;;;;;5076249;28;20212;-82
2023/03/12 04:17:01;;;;;;;6.47;5.83;;;;;;;;;;5074929;28;20207;-82
2023/03/12 04:19:28;;;;;;;6.30;5.30;;;;;;;;;;5075730;28;20207;-83
2023/03/12 04:21:55;;;;;;;7.17;5.93;;;;;;;;;;5061436;28;20236;-83
2023/03/12 04:24:22;;;;;;;8.70;5.40;;;;;;;;;;5071660;22;20240;-84
2023/03/12 04:26:51;;;;;;;6.03;5.47;;;;;;;;;;5033337;28;20199;-84
2023/03/12 04:29:18;;;;;;;7.93;5.80;;;;;;;;;;5033040;28;20264;-84
2023/03/12 04:31:46;;;;;;;6.23;4.90;;;;;;;;;;5033477;28;20231;-84
2023/03/12 04:34:13;;;;;;;8.93;4.90;;;;;;;;;;5032919;28;20236;-84
2023/03/12 04:36:40;;;;;;;6.87;5.40;;;;;;;;;;5033636;28;20205;-84
2023/03/12 04:39:07;;;;;;;11.03;5.80;;;;;;;;;;5032535;28;20236;-85
2023/03/12 04:41:34;;;;;;;6.33;4.67;;;;;;;;;;5032304;28;20664;-85
2023/03/12 04:44:03;;;;;;;11.17;6.00;;;;;;;;;;5032081;28;20234;-85
2023/03/12 04:46:30;;;;;;;7.57;5.60;;;;;;;;;;5032887;28;20204;-84
2023/03/12 04:48:57;;;;;;;8.57;5.77;;;;;;;;;;5032316;28;20237;-84
2023/03/12 04:51:24;;;;;;;6.50;5.67;;;;;;;;;;5032741;28;20216;-84
2023/03/12 04:53:51;;;;;;;11.07;5.73;;;;;;;;;;5032628;28;20243;-84
2023/03/12 04:56:18;;;;;;;5.87;4.97;;;;;;;;;;5033263;28;20204;-84
2023/03/12 04:58:45;;;;;;;8.13;5.30;;;;;;;;;;5032353;28;20241;-84
2023/03/12 05:01:16;;;;;;;5.80;5.27;;;;;;;;;;5032991;28;20208;-84
2023/03/12 05:03:45;;;;;;;10.57;5.90;;;;;;;;;;5031977;28;20239;-84
2023/03/12 05:06:12;;;;;;;7.43;6.10;;;;;;;;;;5032748;28;20208;-84
2023/03/12 05:08:39;;;;;;;8.37;5.27;;;;;;;;;;5032388;28;20573;-84
2023/03/12 05:11:06;;;;;;;7.27;5.97;;;;;;;;;;5032775;28;20217;-84
2023/03/12 05:13:33;;;;;;;6.77;5.80;;;;;;;;;;5032200;28;20286;-84
2023/03/12 05:16:00;;;;;;;6.13;5.60;;;;;;;;;;5032221;28;20206;-84
2023/03/12 05:18:27;;;;;;;6.37;5.77;;;;;;;;;;5031740;28;20723;-84
2023/03/12 05:21:02;;;;;;;7.70;6.67;;;;;;;;;;5032661;28;20212;-84
2023/03/12 05:23:30;;;;;;;7.73;6.80;;;;;;;;;;5032134;28;20253;-84
2023/03/12 05:25:57;;;;;;;9.50;7.97;;;;;;;;;;5032616;28;20205;-84
2023/03/12 05:28:27;;;;;;;10.07;6.93;;;;;;;;;;5032080;28;20230;-84
2023/03/12 05:30:54;;;;;;;8.53;6.70;;;;;;;;;;5032807;28;20201;-84
2023/03/12 05:33:21;;;;;;;10.73;7.40;;;;;;;;;;5032029;28;20263;-84
2023/03/12 05:35:48;;;;;;;14.20;7.60;;;;;;;;;;5032801;28;20219;-84
2023/03/12 05:38:17;;;;;;;9.03;7.17;;;;;;;;;;5032201;28;20245;-84
2023/03/12 05:40:44;;;;;;;7.97;7.07;;;;;;;;;;5032548;28;20210;-84
2023/03/12 05:43:11;;;;;;;7.93;7.07;;;;;;;;;;5032162;28;20240;-84
2023/03/12 05:45:38;;;;;;;9.43;7.53;;;;;;;;;;5032675;28;20215;-84
2023/03/12 05:48:05;;;;;;;8.30;6.57;;;;;;;;;;5031978;28;20246;-84
2023/03/12 05:50:32;;;;;;;8.47;6.80;;;;;;;;;;5032414;28;20221;-84
2023/03/12 05:52:59;;;;;;;9.30;6.77;;;;;;;;;;5031647;28;20232;-84
2023/03/12 05:55:27;;;;;;;7.27;6.57;;;;;;;;;;5032482;28;20208;-84
2023/03/12 05:57:55;;;;;;;10.73;6.77;;;;;;;;;;5031712;28;20239;-84
2023/03/12 06:00:22;;;;;;;9.73;7.07;;;;;;;;;;5032331;28;20208;-84
2023/03/12 06:02:49;;;;;;;14.77;7.23;;;;;;;;;;5031285;28;20245;-84
2023/03/12 06:05:16;;;;;;;15.30;9.73;;;;;;;;;;5032259;28;20230;-84
2023/03/12 06:07:43;;;;;;;11.30;6.43;;;;;;;;;;5031725;28;20241;-84
2023/03/12 06:10:11;;;;;;;7.87;5.87;;;;;;;;;;5032011;28;20572;-84
2023/03/12 06:12:40;;;;;;;12.33;6.50;;;;;;;;;;5031298;28;20241;-83
2023/03/12 06:15:07;;;;;;;9.40;6.53;;;;;;;;;;5031996;28;20232;-84
2023/03/12 06:17:34;;;;;;;9.67;7.63;;;;;;;;;;5031143;28;20743;-84
2023/03/12 06:20:01;;;;;;;8.63;6.03;;;;;;;;;;5031951;28;20205;-84
2023/03/12 06:22:29;;;;;;;6.93;6.00;;;;;;;;;;5031228;28;20241;-84
2023/03/12 06:24:56;;;;;;;9.97;5.90;;;;;;;;;;5031909;28;20281;-84
2023/03/12 06:27:23;;;;;;;8.43;6.07;;;;;;;;;;5031745;28;20237;-85
2023/03/12 06:29:51;;;;;;;7.63;6.03;;;;;;;;;;5035199;28;20210;-84
2023/03/12 06:32:19;;;;;;;8.27;6.27;;;;;;;;;;5035411;28;20317;-85
2023/03/12 06:34:46;;;;;;;8.77;6.17;;;;;;;;;;5035724;28;20289;-84
2023/03/12 06:37:13;;;;;;;10.23;6.20;;;;;;;;;;5035072;28;20214;-83
2023/03/12 06:39:40;;;;;;;10.83;6.30;;;;;;;;;;5031588;28;20217;-84
2023/03/12 06:42:07;;;;;;;7.83;6.20;;;;;;;;;;5035222;28;20210;-84
2023/03/12 06:44:34;;;;;;;8.33;6.47;;;;;;;;;;5036125;28;20238;-84
2023/03/12 06:47:03;;;;;;;9.77;6.47;;;;;;;;;;5035393;28;20213;-84
2023/03/12 06:49:32;;;;;;;6.77;6.03;;;;;;;;;;5035610;28;20210;-85
2023/03/12 06:51:59;;;;;;;8.30;6.60;;;;;;;;;;5035114;28;20221;-84
2023/03/12 06:54:26;;;;;;;11.70;7.30;;;;;;;;;;5035761;28;20233;-85
2023/03/12 06:56:53;;;;;;;9.50;6.80;;;;;;;;;;5035677;28;20214;-85
2023/03/12 06:59:20;;;;;;;13.47;8.07;;;;;;;;;;5035211;28;20236;-85
2023/03/12 07:01:48;;;;;;;14.43;9.40;;;;;;;;;;5029289;28;20268;-85
2023/03/12 07:04:21;;;;;;;10.13;8.10;;;;;;;;;;5045751;28;20227;-85
2023/03/12 07:06:50;;;;;;;15.50;7.33;;;;;;;;;;5045783;28;20201;-85
2023/03/12 07:09:17;;;;;;;9.80;7.73;;;;;;;;;;5037923;28;20233;-84
2023/03/12 07:11:44;;;;;;;9.57;7.20;;;;;;;;;;5033909;28;20239;-85
2023/03/12 07:14:11;;;;;;;9.93;7.50;;;;;;;;;;5033614;28;20257;-86
2023/03/12 07:16:38;;;;;;;13.40;7.77;;;;;;;;;;5034045;28;20658;-86
2023/03/12 07:19:05;;;;;;;10.10;6.70;;;;;;;;;;5014721;28;20241;-86
2023/03/12 07:21:33;;;;;;;8.17;6.40;;;;;;;;;;5014150;28;20207;-86
2023/03/12 07:24:05;;;;;;;7.13;6.30;;;;;;;;;;5021040;28;20242;-86
2023/03/12 07:26:32;;;;;;;7.83;6.70;;;;;;;;;;5033528;28;20277;-86
2023/03/12 07:28:59;;;;;;;8.50;6.63;;;;;;;;;;5032743;28;20233;-85
2023/03/12 07:31:27;;;;;;;7.70;6.90;;;;;;;;;;5048724;28;20234;-84
2023/03/12 07:33:54;;;;;;;12.07;6.33;;;;;;;;;;5037723;28;20716;-85
2023/03/12 07:36:21;;;;;;;11.13;6.80;;;;;;;;;;5034069;28;20530;-84
2023/03/12 07:38:54;;;;;;;11.07;6.67;;;;;;;;;;5036504;28;20241;-84
2023/03/12 07:41:31;;;;;;;7.30;6.53;;;;;;;;;;5037144;28;20268;-83
2023/03/12 07:43:58;;;;;;;7.37;6.30;;;;;;;;;;5043352;28;20241;-83
2023/03/12 07:46:25;;;;;;;10.07;6.57;;;;;;;;;;5053972;28;20194;-84
2023/03/12 07:48:52;;;;;;;9.93;6.97;;;;;;;;;;5052849;28;20230;-84
2023/03/12 07:51:19;;;;;;;11.57;6.97;;;;;;;;;;5030264;28;20224;-84
2023/03/12 07:53:47;;;;;;;9.37;6.60;;;;;;;;;;5026836;28;20238;-85
2023/03/12 07:56:15;;;;;;;9.27;6.73;;;;;;;;;;5024603;28;20197;-83
2023/03/12 07:58:42;;;;;;;10.63;6.70;;;;;;;;;;5021736;28;20260;-82
2023/03/12 08:01:09;;;;;;;9.83;6.67;;;;;;;;;;5041528;28;20261;-83
2023/03/12 08:03:37;;;;;;;10.63;6.70;;;;;;;;;;5041963;28;20237;-83
2023/03/12 08:06:05;;;;;;;11.97;6.53;;;;;;;;;;5025021;28;20200;-83
2023/03/12 08:08:32;;;;;;;10.00;6.03;;;;;;;;;;5027569;28;20241;-82
2023/03/12 08:10:59;;;;;;;7.43;5.50;;;;;;;;;;5037176;28;20253;-82
2023/03/12 08:13:27;;;;;;;12.17;6.87;;;;;;;;;;5039819;28;20241;-82
2023/03/12 08:15:55;;;;;;;6.50;5.90;;;;;;;;;;5033304;28;20202;-83
2023/03/12 08:18:23;;;;;;;5.23;4.60;;;;;;;;;;5018776;28;20254;-82
2023/03/12 08:20:51;;;;;;;5.90;4.90;;;;;;;;;;5031811;28;20214;-82
2023/03/12 08:23:18;;;;;;;8.27;4.30;;;;;;;;;;5028963;28;20317;-82
2023/03/12 08:25:46;;;;;;;5.43;3.57;;;;;;;;;;5017745;28;20221;-82
2023/03/12 08:28:13;;;;;;;4.53;3.90;;;;;;;;;;5025696;28;20659;-82
2023/03/12 08:30:45;;;;;;;9.97;5.03;;;;;;;;;;5012635;28;20234;-83
2023/03/12 08:33:12;;;;;;;10.57;7.20;;;;;;;;;;5031006;28;20257;-82
2023/03/12 08:35:39;;;;;;;8.20;5.40;;;;;;;;;;5020793;28;20851;-82
2023/03/12 08:38:06;;;;;;;5.17;4.77;;;;;;;;;;5017572;28;20731;-82
2023/03/12 08:40:33;;;;;;;7.07;4.80;;;;;;;;;;5021234;28;20219;-82
2023/03/12 08:43:00;;;;;;;6.53;5.53;;;;;;;;;;5019412;28;20233;-82
2023/03/12 08:45:27;;;;;;;6.97;4.70;;;;;;;;;;5032104;28;20202;-82
2023/03/12 08:47:56;;;;;;;6.40;5.30;;;;;;;;;;5026108;28;20231;-82
2023/03/12 08:50:25;;;;;;;6.60;5.50;;;;;;;;;;5027284;28;20211;-84
2023/03/12 08:52:52;;;;;;;7.93;6.63;;;;;;;;;;5014651;28;20243;-83
2023/03/12 08:55:19;;;;;;;10.37;6.73;;;;;;;;;;5030450;28;20234;-83
2023/03/12 08:57:46;;;;;;;8.07;5.80;;;;;;;;;;5031447;28;20237;-83
2023/03/12 09:00:15;;;;;;;6.63;5.93;;;;;;;;;;5031940;28;20235;-84
2023/03/12 09:02:44;;;;;;;10.87;7.17;;;;;;;;;;5030746;28;20244;-83
2023/03/12 09:05:12;;;;;;;16.37;8.17;;;;;;;;;;5031516;28;20257;-84
2023/03/12 09:07:39;;;;;;;10.87;8.07;;;;;;;;;;5021329;28;20230;-84
2023/03/12 09:10:07;;;;;;;16.53;8.13;;;;;;;;;;5031337;28;20210;-86
2023/03/12 09:12:34;;;;;;;11.20;8.23;;;;;;;;;;5025543;28;20231;-83
2023/03/12 09:15:01;;;;;;;13.73;8.13;;;;;;;;;;5025899;28;20226;-85
2023/03/12 09:17:29;;;;;;;14.47;7.30;;;;;;;;;;5012886;28;20242;-83
2023/03/12 09:19:56;;;;;;;10.40;7.10;;;;;;;;;;5012389;28;20227;-84
2023/03/12 09:22:25;;;;;;;12.07;7.80;;;;;;;;;;5014744;28;20226;-84
2023/03/12 09:24:52;;;;;;;12.73;8.80;;;;;;;;;;5031391;28;20238;-85
2023/03/12 09:27:19;;;;;;;16.50;9.77;;;;;;;;;;5019272;28;20245;-85
2023/03/12 09:29:48;;;;;;;14.77;8.43;;;;;;;;;;5011796;28;20537;-85
2023/03/12 09:32:15;;;;;;;15.77;9.10;;;;;;;;;;5013698;28;20242;-84
2023/03/12 09:34:43;;;;;;;18.37;10.00;;;;;;;;;;5040691;28;20733;-84
2023/03/12 09:37:10;;;;;;;14.63;9.13;;;;;;;;;;5048924;28;20206;-84
2023/03/12 09:39:38;;;;;;;19.27;9.80;;;;;;;;;;5026105;28;20226;-84
2023/03/12 09:42:07;;;;;;;20.57;11.17;;;;;;;;;;5029088;28;20210;-84
2023/03/12 09:44:36;;;;;;;23.07;11.80;;;;;;;;;;5028114;28;20232;-83
2023/03/12 09:47:06;;;;;;;19.93;10.80;;;;;;;;;;5047684;28;20213;-83
2023/03/12 09:49:35;;;;;;;17.20;10.70;;;;;;;;;;5013351;28;20203;-83
2023/03/12 09:52:03;;;;;;;17.40;9.90;;;;;;;;;;5010306;28;20245;-83
2023/03/12 09:54:34;;;;;;;14.53;9.23;;;;;;;;;;5024427;28;20276;-83
2023/03/12 09:57:04;;;;;;;16.13;10.33;;;;;;;;;;5031037;28;20191;-84
2023/03/12 09:59:31;;;;;;;19.70;11.90;;;;;;;;;;5031527;28;20215;-83
2023/03/12 10:02:00;;;;;;;20.57;11.57;;;;;;;;;;5030398;28;20552;-83
2023/03/12 10:04:33;;;;;;;23.43;12.93;;;;;;;;;;5035312;28;20233;-84
2023/03/12 10:07:04;;;;;;;20.83;12.30;;;;;;;;;;5050604;28;20197;-83
2023/03/12 10:09:37;;;;;;;21.33;13.23;;;;;;;;;;5051311;28;20222;-83
2023/03/12 10:12:10;;;;;;;17.67;12.30;;;;;;;;;;5050177;28;20193;-83
2023/03/12 10:14:45;;;;;;;20.37;12.77;;;;;;;;;;5035629;28;20225;-84
2023/03/12 10:17:22;;;;;;;20.63;12.03;;;;;;;;;;5049892;28;20197;-84
2023/03/12 10:20:00;;;;;;;18.30;11.33;;;;;;;;;;5050961;28;20225;-84
2023/03/12 10:22:32;;;;;;;15.77;11.83;;;;;;;;;;5019862;28;20238;-84
2023/03/12 10:25:06;;;;;;;20.07;12.87;;;;;;;;;;5089765;23;20579;-83
2023/03/12 10:27:35;;;;;;;23.27;14.07;;;;;;;;;;5086029;28;20237;-83
2023/03/12 10:30:03;;;;;;;22.03;14.23;;;;;;;;;;5091244;28;20196;-82
2023/03/12 10:32:37;;;;;;;23.97;13.83;;;;;;;;;;5090046;28;20236;-81
2023/03/12 10:35:05;;;;;;;20.60;13.83;;;;;;;;;;5080523;28;20233;-80
2023/03/12 10:37:36;;;;;;;21.90;14.50;;;;;;;;;;5069742;28;20242;-82
2023/03/12 10:40:04;;;;;;;23.23;13.73;;;;;;;;;;5070372;28;20673;-82
2023/03/12 10:42:32;;;;;;;21.33;13.83;;;;;;;;;;5069362;28;20737;-82
2023/03/12 10:45:04;;;;;;;22.07;14.37;;;;;;;;;;5070118;28;20232;-82
2023/03/12 10:47:34;;;;;;;22.83;13.13;;;;;;;;;;5070180;28;20241;-82
2023/03/12 10:50:13;;;;;;;21.67;14.40;;;;;;;;;;5070771;28;20264;-82
2023/03/12 10:52:40;;;;;;;22.60;14.87;;;;;;;;;;5068365;28;20229;-82
2023/03/12 10:55:12;;;;;;;23.03;14.23;;;;;;;;;;5070366;28;20684;-82
2023/03/12 10:57:40;;;;;;;22.30;15.90;;;;;;;;;;5054701;28;20237;-83
2023/03/12 11:00:18;;;;;;;23.03;14.17;;;;;;;;;;5050377;28;20226;-82
2023/03/12 11:02:45;;;;;;;28.57;14.63;;;;;;;;;;5049347;28;20740;-81
2023/03/12 11:05:21;;;;;;;25.13;14.77;;;;;;;;;;5050359;28;20705;-82
2023/03/12 11:07:48;;;;;;;23.53;15.10;;;;;;;;;;5069501;28;20603;-82
2023/03/12 11:10:23;;;;;;;21.90;15.80;;;;;;;;;;5070909;28;20220;-84
2023/03/12 11:13:01;;;;;;;24.23;15.63;;;;;;;;;;5069283;28;20246;-81
2023/03/12 11:15:31;;;;;;;25.97;15.13;;;;;;;;;;5072666;28;20711;-81
2023/03/12 11:18:17;;;;;;;25.00;15.70;;;;;;;;;;5053081;28;20237;-82
2023/03/12 11:20:44;;;;;;;28.73;16.33;;;;;;;;;;5058781;28;20215;-81
2023/03/12 11:23:14;;;;;;;24.07;16.40;;;;;;;;;;5061418;28;20233;-81
2023/03/12 11:25:41;;;;;;;30.80;17.47;;;;;;;;;;5053628;28;20252;-82
2023/03/12 11:28:15;;;;;;;30.50;17.00;;;;;;;;;;5053461;28;20240;-81
2023/03/12 11:30:44;;;;;;;33.13;18.20;;;;;;;;;;5053738;28;20209;-82
2023/03/12 11:33:12;;;;;;;27.17;16.90;;;;;;;;;;5064481;28;20323;-82
2023/03/12 11:35:45;;;;;;;28.60;18.93;;;;;;;;;;5073701;28;20244;-81
2023/03/12 11:38:17;;;;;;;20.27;13.03;;;;;;;;;;5073265;28;20626;-81
2023/03/12 11:40:56;;;;;;;25.27;16.07;;;;;;;;;;5073403;28;20208;-82
2023/03/12 11:43:40;;;;;;;15.43;11.03;;;;;;;;;;5072120;28;20244;-81
2023/03/12 11:46:14;;;;;;;25.33;15.90;;;;;;;;;;5073918;28;20637;-81
2023/03/12 11:48:45;;;;;;;19.03;13.30;;;;;;;;;;5072813;28;20244;-81
2023/03/12 11:51:18;;;;;;;20.27;11.10;;;;;;;;;;5073217;28;20268;-81
2023/03/12 11:54:03;;;;;;;25.07;14.43;;;;;;;;;;5059315;28;20283;-82
2023/03/12 11:56:34;;;;;;;18.23;13.27;;;;;;;;;;5053336;28;20254;-81
2023/03/12 11:59:19;;;;;;;22.40;14.00;;;;;;;;;;5052890;28;20721;-83
2023/03/12 12:01:56;;;;;;;24.57;14.77;;;;;;;;;;5039858;28;20682;-83
2023/03/12 12:04:54;;;;;;;18.90;13.23;;;;;;;;;;5071394;28;20630;-82
2023/03/12 12:07:27;;;;;;;19.60;13.23;;;;;;;;;;5025292;28;20256;-84
2023/03/12 12:09:58;;;;;;;20.73;14.33;;;;;;;;;;5050385;28;20197;-83
2023/03/12 12:12:33;;;;;;;14.87;10.67;;;;;;;;;;5053005;28;20238;-83
2023/03/12 12:15:09;;;;;;;23.87;15.80;;;;;;;;;;5071756;28;20860;-83
2023/03/12 12:17:44;;;;;;;11.10;7.57;;;;;;;;;;5071868;28;20296;-83
2023/03/12 12:20:18;;;;;;;16.73;12.43;;;;;;;;;;5053219;28;20213;-82
2023/03/12 12:22:51;;;;;;;17.13;13.27;;;;;;;;;;5055088;28;20237;-83
2023/03/12 12:25:24;;;;;;;19.27;13.60;;;;;;;;;;5072786;28;20233;-83
2023/03/12 12:27:56;;;;;;;19.23;12.87;;;;;;;;;;5072891;28;20233;-83
2023/03/12 12:30:29;;;;;;;14.93;10.47;;;;;;;;;;5072654;28;20209;-82
2023/03/12 12:33:04;;;;;;;19.93;12.97;;;;;;;;;;5055176;28;20239;-81
2023/03/12 12:35:34;;;;;;;19.77;12.73;;;;;;;;;;5071754;28;20225;-82
2023/03/12 12:38:03;;;;;;;16.70;13.23;;;;;;;;;;5072190;28;20241;-81
2023/03/12 12:40:36;;;;;;;17.77;11.53;;;;;;;;;;5072361;28;20731;-81
2023/03/12 12:43:07;;;;;;;15.40;11.30;;;;;;;;;;5071223;28;20233;-81
2023/03/12 12:45:34;;;;;;;13.83;9.97;;;;;;;;;;5072870;28;20249;-81
2023/03/12 12:48:04;;;;;;;15.57;10.77;;;;;;;;;;5072320;28;20233;-81
2023/03/12 12:50:34;;;;;;;18.77;10.27;;;;;;;;;;5072433;28;20201;-82
2023/03/12 12:53:06;;;;;;;17.53;11.10;;;;;;;;;;5071199;28;20252;-81
2023/03/12 12:55:37;;;;;;;11.93;8.53;;;;;;;;;;5071665;28;20796;-83
2023/03/12 12:58:05;;;;;;;15.00;8.60;;;;;;;;;;5063233;28;20229;-82
2023/03/12 13:00:40;;;;;;;13.80;8.73;;;;;;;;;;5070936;28;20235;-82
2023/03/12 13:03:12;;;;;;;12.97;8.90;;;;;;;;;;5059507;28;20593;-82
2023/03/12 13:05:46;;;;;;;9.83;7.90;;;;;;;;;;5072209;28;20229;-82
2023/03/12 13:08:28;;;;;;;11.57;7.20;;;;;;;;;;5071131;28;20233;-82
2023/03/12 13:10:56;;;;;;;9.83;5.93;;;;;;;;;;5052491;28;20198;-82
2023/03/12 13:13:24;;;;;;;11.70;6.97;;;;;;;;;;5060884;28;20241;-82
2023/03/12 13:15:51;;;;;;;6.43;4.07;;;;;;;;;;5061875;28;20230;-83
2023/03/12 13:18:24;;;;;;;15.10;7.00;;;;;;;;;;5052672;28;20697;-82
2023/03/12 13:21:15;;;;;;;10.60;6.40;;;;;;;;;;5071108;28;20219;-82
2023/03/12 13:23:46;;;;;;;12.43;7.27;;;;;;;;;;5049928;28;20244;-83
2023/03/12 13:26:21;;;;;;;12.60;7.10;;;;;;;;;;5063434;28;20205;-83
2023/03/12 13:28:59;;;;;;;9.70;6.53;;;;;;;;;;5063434;28;20741;-82
2023/03/12 13:31:37;;;;;;;6.70;4.90;;;;;;;;;;5065484;28;20205;-82
2023/03/12 13:34:23;;;;;;;10.80;6.07;;;;;;;;;;5066435;28;20302;-83
2023/03/12 13:36:52;;;;;;;8.43;5.07;;;;;;;;;;5051452;28;20190;-82
2023/03/12 13:39:30;;;;;;;9.30;5.70;;;;;;;;;;5068726;28;20703;-83
2023/03/12 13:41:58;;;;;;;13.77;6.80;;;;;;;;;;5070521;28;20210;-82
2023/03/12 13:44:31;;;;;;;17.90;6.30;;;;;;;;;;5071018;28;20237;-82
2023/03/12 13:47:00;;;;;;;11.77;6.03;;;;;;;;;;5071332;28;20193;-82
2023/03/12 13:49:27;;;;;;;10.13;5.83;;;;;;;;;;5070703;28;20213;-82
2023/03/12 13:52:03;;;;;;;11.57;4.90;;;;;;;;;;5070027;28;20764;-82
2023/03/12 13:54:40;;;;;;;9.30;4.73;;;;;;;;;;5070574;28;20217;-83
2023/03/12 13:57:11;;;;;;;7.87;4.90;;;;;;;;;;5071343;28;20276;-83
2023/03/12 13:59:43;;;;;;;7.00;3.60;;;;;;;;;;5071484;28;20228;-83
2023/03/12 14:02:16;;;;;;;12.13;6.37;;;;;;;;;;5055918;28;20670;-83
2023/03/12 14:04:44;;;;;;;13.27;5.80;;;;;;;;;;5051476;28;20237;-82
2023/03/12 14:07:18;;;;;;;11.43;5.90;;;;;;;;;;5050561;28;20217;-82
2023/03/12 14:09:50;;;;;;;16.10;5.87;;;;;;;;;;5068610;28;20193;-83
2023/03/12 14:12:21;;;;;;;9.10;5.03;;;;;;;;;;5070308;28;20239;-83
2023/03/12 14:14:55;;;;;;;10.30;5.20;;;;;;;;;;5070362;28;20224;-82
2023/03/12 14:17:24;;;;;;;8.87;4.63;;;;;;;;;;5063711;28;20234;-83
2023/03/12 14:19:53;;;;;;;10.27;4.30;;;;;;;;;;5050891;28;20190;-83
2023/03/12 14:22:22;;;;;;;10.07;4.10;;;;;;;;;;5049326;28;20249;-83
2023/03/12 14:24:52;;;;;;;7.23;3.97;;;;;;;;;;5050946;28;20299;-83
2023/03/12 14:27:20;;;;;;;8.30;3.97;;;;;;;;;;5068821;28;20229;-84
2023/03/12 14:29:51;;;;;;;7.70;3.63;;;;;;;;;;5071136;28;20661;-84
2023/03/12 14:32:20;;;;;;;10.47;4.63;;;;;;;;;;5070672;28;20240;-82
2023/03/12 14:34:50;;;;;;;7.73;3.77;;;;;;;;;;5071126;28;20217;-84
2023/03/12 14:37:20;;;;;;;7.40;4.13;;;;;;;;;;5069745;28;20233;-82
2023/03/12 14:39:50;;;;;;;7.73;4.67;;;;;;;;;;5071039;28;20209;-82
2023/03/12 14:42:24;;;;;;;5.93;4.27;;;;;;;;;;5070094;28;20233;-82
2023/03/12 14:44:59;;;;;;;9.17;5.33;;;;;;;;;;5070336;28;20758;-82